Time;durP1;ratioP1;P1;durP2;ratioP2;P2;SDS_P1;SDS_P2;PMS_P1;PMS_P2;Temp;Humidity;BMP_temperature;BMP_pressure;BME280_temperature;BME280_humidity;BME280_pressure;Samples;Min_cycle;Max_cycle;Signal;HPM_P1;HPM_P2
2021/03/30 00:01:30;;;;;;;25.52;19.60;;;;;;;10.11;80.29;101680.44;104288;1108;72159;-65
2021/03/30 00:03:36;;;;;;;26.90;20.83;;;;;;;10.06;80.24;101679.03;104298;1108;83881;-65
2021/03/30 00:05:41;;;;;;;27.65;20.92;;;;;;;10.05;80.40;101679.20;104290;1108;78582;-66
2021/03/30 00:07:47;;;;;;;26.80;20.42;;;;;;;9.97;80.37;101676.42;104375;1107;64310;-60
2021/03/30 00:09:55;;;;;;;25.63;20.38;;;;;;;9.98;80.66;101673.56;104340;1107;81603;-60
2021/03/30 00:12:02;;;;;;;25.48;19.95;;;;;;;9.98;80.67;101675.41;104348;1105;70640;-60
2021/03/30 00:14:07;;;;;;;24.33;19.87;;;;;;;9.97;80.49;101671.84;104354;1107;83888;-61
2021/03/30 00:16:15;;;;;;;24.90;19.90;;;;;;;9.99;80.72;101667.17;104358;1107;78465;-61
2021/03/30 00:18:23;;;;;;;26.42;19.17;;;;;;;9.96;80.46;101667.47;104367;1105;64160;-61
2021/03/30 00:20:29;;;;;;;23.80;19.30;;;;;;;10.00;80.53;101671.55;104349;1105;81588;-62
2021/03/30 00:22:37;;;;;;;25.65;19.02;;;;;;;10.01;80.70;101667.00;104343;1107;72156;-67
2021/03/30 00:24:43;;;;;;;24.20;18.20;;;;;;;10.03;80.53;101665.84;104300;1107;85808;-66
2021/03/30 00:26:48;;;;;;;23.77;19.00;;;;;;;10.05;80.54;101661.13;104320;1106;78820;-61
2021/03/30 00:28:53;;;;;;;23.93;19.70;;;;;;;10.00;80.68;101668.84;104328;1107;64288;-61
2021/03/30 00:30:59;;;;;;;25.98;18.95;;;;;;;10.04;80.50;101667.55;104338;1105;81270;-60
2021/03/30 00:33:07;;;;;;;25.42;19.17;;;;;;;10.03;80.72;101664.98;104314;1107;71427;-65
2021/03/30 00:35:13;;;;;;;25.00;18.50;;;;;;;10.05;80.60;101669.22;104288;1104;84950;-65
2021/03/30 00:37:22;;;;;;;27.10;19.60;;;;;;;9.97;80.68;101671.03;104269;1107;77937;-65
2021/03/30 00:39:27;;;;;;;23.83;18.52;;;;;;;10.03;80.71;101663.14;104364;1105;64326;-65
2021/03/30 00:41:40;;;;;;;26.42;19.38;;;;;;;10.06;80.85;101665.53;104319;1106;79888;-62
2021/03/30 00:43:49;;;;;;;26.75;19.65;;;;;;;10.04;80.53;101670.25;104362;1105;71052;-62
2021/03/30 00:45:54;;;;;;;27.45;18.80;;;;;;;10.06;80.64;101661.98;104345;1104;84560;-60
2021/03/30 00:48:01;;;;;;;25.13;18.42;;;;;;;10.05;80.97;101661.13;104318;1105;78369;-65
2021/03/30 00:50:12;;;;;;;24.83;18.13;;;;;;;10.03;80.73;101657.73;104310;1107;64316;-65
2021/03/30 00:52:18;;;;;;;23.48;17.88;;;;;;;10.08;80.83;101657.27;104323;1107;80762;-65
2021/03/30 00:54:23;;;;;;;22.88;17.23;;;;;;;10.03;80.92;101660.44;104371;1106;72259;-63
2021/03/30 00:56:29;;;;;;;24.30;18.38;;;;;;;9.97;80.94;101666.45;104326;1107;84923;-61
2021/03/30 00:58:35;;;;;;;21.70;16.88;;;;;;;9.99;80.99;101661.77;104326;1107;77936;-59
2021/03/30 01:00:41;;;;;;;20.92;15.95;;;;;;;9.99;80.99;101664.47;104354;1107;64268;-58
2021/03/30 01:02:49;;;;;;;25.73;18.17;;;;;;;10.01;81.03;101673.25;104322;1107;80469;-66
2021/03/30 01:04:57;;;;;;;26.27;18.73;;;;;;;10.02;81.07;101663.30;104350;1107;70895;-64
2021/03/30 01:07:07;;;;;;;24.13;18.13;;;;;;;10.03;80.78;101671.23;104368;1105;85676;-60
2021/03/30 01:09:31;;;;;;;23.27;16.90;;;;;;;10.03;80.93;101665.84;104304;1107;77718;-60
2021/03/30 01:11:51;;;;;;;24.38;18.25;;;;;;;10.06;80.81;101665.53;104372;1105;63384;-65
2021/03/30 01:14:09;;;;;;;23.52;17.23;;;;;;;10.09;81.11;101667.07;104284;1107;81092;-65
2021/03/30 01:16:20;;;;;;;24.63;17.95;;;;;;;10.04;81.19;101666.69;104352;1104;72110;-65
2021/03/30 01:18:32;;;;;;;21.05;15.77;;;;;;;10.02;81.29;101663.30;104336;1107;84441;-65
2021/03/30 01:21:13;;;;;;;24.10;17.95;;;;;;;9.95;81.32;101657.67;104288;1107;79103;-65
2021/03/30 01:23:44;;;;;;;20.13;15.73;;;;;;;10.03;81.08;101668.53;104336;1107;64229;-65
2021/03/30 01:26:11;;;;;;;25.02;17.98;;;;;;;10.08;81.14;101660.81;104322;1107;81129;-65
2021/03/30 01:28:29;;;;;;;22.05;17.20;;;;;;;10.13;81.08;101655.00;104311;1107;72928;-60
2021/03/30 01:30:37;;;;;;;26.40;18.25;;;;;;;10.13;80.95;101659.55;104242;1107;84301;-60
2021/03/30 01:32:49;;;;;;;23.33;17.48;;;;;;;10.11;81.04;101661.53;104267;1107;77493;-64
2021/03/30 01:34:57;;;;;;;22.15;17.40;;;;;;;10.12;81.03;101657.81;104306;1107;64147;-64
2021/03/30 01:37:07;;;;;;;24.95;18.05;;;;;;;10.14;80.98;101655.83;104313;1107;81284;-60
2021/03/30 01:39:16;;;;;;;21.50;17.02;;;;;;;10.09;80.85;101654.42;104337;1107;71210;-61
2021/03/30 01:41:24;;;;;;;22.38;16.35;;;;;;;10.09;81.19;101650.87;104371;1104;84695;-61
2021/03/30 01:43:33;;;;;;;19.75;15.98;;;;;;;10.00;81.24;101641.84;104332;1107;77904;-60
2021/03/30 01:45:39;;;;;;;21.55;16.02;;;;;;;10.02;81.20;101645.27;104327;1107;64467;-59
2021/03/30 01:47:45;;;;;;;22.17;16.65;;;;;;;10.08;81.29;101646.46;104375;1107;79982;-64
2021/03/30 01:49:51;;;;;;;21.10;17.20;;;;;;;10.12;81.27;101649.70;104295;1107;72077;-64
2021/03/30 01:51:58;;;;;;;23.97;16.60;;;;;;;10.12;81.10;101644.30;104306;1107;84801;-63
2021/03/30 01:54:07;;;;;;;24.35;18.08;;;;;;;10.13;81.25;101643.34;104330;1107;79554;-63
2021/03/30 01:56:17;;;;;;;22.50;15.68;;;;;;;10.08;81.08;101647.31;104327;1107;64253;-63
2021/03/30 01:58:24;;;;;;;21.73;16.13;;;;;;;10.07;80.99;101651.04;104309;1107;81413;-63
2021/03/30 02:00:34;;;;;;;22.52;15.95;;;;;;;10.06;81.23;101654.73;104331;1107;71674;-63
2021/03/30 02:02:43;;;;;;;23.23;17.70;;;;;;;10.07;81.26;101648.34;104287;1107;85140;-60
2021/03/30 02:04:51;;;;;;;24.08;17.38;;;;;;;10.11;81.26;101646.16;104307;1107;78052;-60
2021/03/30 02:07:00;;;;;;;22.77;17.60;;;;;;;10.14;81.20;101655.83;104323;1107;64256;-61
2021/03/30 02:09:13;;;;;;;20.53;16.60;;;;;;;10.11;81.21;101648.03;104312;1105;80812;-59
2021/03/30 02:11:26;;;;;;;25.50;17.98;;;;;;;10.11;81.25;101645.33;104336;1107;71929;-64
2021/03/30 02:13:38;;;;;;;26.85;17.33;;;;;;;10.11;81.23;101645.33;104311;1107;85367;-60
2021/03/30 02:15:44;;;;;;;22.77;17.35;;;;;;;10.12;81.20;101638.91;104365;1107;77153;-61
2021/03/30 02:17:56;;;;;;;23.42;17.17;;;;;;;10.13;81.14;101648.75;104360;1107;64768;-65
2021/03/30 02:20:15;;;;;;;23.35;16.33;;;;;;;10.16;81.04;101643.04;104287;1107;79951;-64
2021/03/30 02:22:27;;;;;;;26.48;16.90;;;;;;;10.18;81.04;101633.78;104253;1108;72476;-65
2021/03/30 02:24:34;;;;;;;21.65;15.93;;;;;;;10.22;81.22;101645.13;104303;1107;84887;-65
2021/03/30 02:26:42;;;;;;;23.02;16.27;;;;;;;10.18;81.07;101638.33;104301;1107;77480;-64
2021/03/30 02:28:52;;;;;;;22.05;16.33;;;;;;;10.14;81.12;101639.63;104311;1107;64195;-64
2021/03/30 02:30:58;;;;;;;19.70;16.10;;;;;;;10.12;81.18;101636.20;104317;1107;79754;-64
2021/03/30 02:33:06;;;;;;;21.00;16.48;;;;;;;10.14;81.23;101645.88;104298;1107;71586;-60
2021/03/30 02:35:14;;;;;;;22.77;16.75;;;;;;;10.10;81.09;101641.78;104320;1107;84930;-60
2021/03/30 02:37:21;;;;;;;26.27;17.33;;;;;;;10.14;81.13;101634.22;104310;1107;77997;-60
2021/03/30 02:39:28;;;;;;;22.95;16.48;;;;;;;10.16;80.94;101643.04;104336;1107;64127;-60
2021/03/30 02:41:34;;;;;;;21.67;16.92;;;;;;;10.15;81.09;101641.33;104299;1107;81255;-61
2021/03/30 02:43:43;;;;;;;26.40;17.40;;;;;;;10.11;81.28;101648.03;104319;1107;71675;-61
2021/03/30 02:45:53;;;;;;;25.60;19.27;;;;;;;10.16;80.97;101643.04;104310;1107;84334;-60
2021/03/30 02:48:02;;;;;;;23.25;17.05;;;;;;;10.20;81.20;101645.27;104344;1107;78552;-65
2021/03/30 02:50:12;;;;;;;24.70;16.63;;;;;;;10.20;81.08;101647.11;104329;1107;64128;-66
2021/03/30 02:52:17;;;;;;;20.38;15.77;;;;;;;10.18;81.02;101647.28;104336;1107;81418;-66
2021/03/30 02:54:28;;;;;;;23.50;17.42;;;;;;;10.17;80.96;101650.11;104322;1107;72532;-66
2021/03/30 02:56:33;;;;;;;22.95;17.10;;;;;;;10.14;81.08;101648.58;104305;1107;85057;-60
2021/03/30 02:58:39;;;;;;;25.83;17.25;;;;;;;10.09;81.07;101649.02;104314;1107;76982;-60
2021/03/30 03:00:47;;;;;;;23.08;16.33;;;;;;;10.07;81.16;101656.44;104348;1107;64757;-60
2021/03/30 03:02:55;;;;;;;24.67;16.95;;;;;;;10.08;81.30;101652.72;104320;1107;81565;-64
2021/03/30 03:05:00;;;;;;;22.25;16.98;;;;;;;10.08;81.05;101655.42;104307;1107;72013;-64
2021/03/30 03:07:07;;;;;;;25.05;18.67;;;;;;;10.08;81.24;101651.86;104319;1107;84182;-60
2021/03/30 03:09:13;;;;;;;24.48;17.15;;;;;;;10.09;81.08;101656.27;104298;1107;77309;-61
2021/03/30 03:11:20;;;;;;;26.75;18.60;;;;;;;10.09;81.29;101659.83;104297;1107;64168;-63
2021/03/30 03:13:27;;;;;;;25.67;18.80;;;;;;;10.13;80.99;101662.25;104312;1107;79893;-61
2021/03/30 03:15:33;;;;;;;25.15;17.65;;;;;;;10.14;81.22;101661.23;104326;1107;71694;-60
2021/03/30 03:17:41;;;;;;;23.58;18.25;;;;;;;10.16;81.08;101654.70;104306;1107;83715;-67
2021/03/30 03:19:49;;;;;;;21.20;17.15;;;;;;;10.16;81.08;101660.09;104316;1107;77955;-65
2021/03/30 03:21:57;;;;;;;23.92;17.83;;;;;;;10.14;81.16;101662.08;104327;1107;64111;-60
2021/03/30 03:24:11;;;;;;;26.92;18.70;;;;;;;10.12;81.17;101658.66;104282;1107;80853;-61
2021/03/30 03:26:19;;;;;;;24.15;17.65;;;;;;;10.15;80.90;101650.28;104284;1107;71650;-66
2021/03/30 03:28:25;;;;;;;23.75;16.70;;;;;;;10.09;81.15;101659.83;104316;1107;84498;-61
2021/03/30 03:30:31;;;;;;;25.33;17.55;;;;;;;10.12;81.25;101647.86;104341;1105;78329;-61
2021/03/30 03:32:40;;;;;;;22.08;17.67;;;;;;;10.11;81.22;101656.13;104304;1107;64115;-67
2021/03/30 03:34:45;;;;;;;25.30;17.85;;;;;;;10.14;81.25;101655.83;104318;1107;81766;-66
2021/03/30 03:36:53;;;;;;;24.25;17.20;;;;;;;10.09;81.21;101654.42;104336;1105;71245;-66
2021/03/30 03:38:59;;;;;;;20.63;17.35;;;;;;;10.07;81.04;101653.73;104341;1106;84024;-66
2021/03/30 03:41:07;;;;;;;25.27;17.80;;;;;;;10.08;81.07;101655.42;104339;1107;77275;-65
2021/03/30 03:43:14;;;;;;;26.45;17.63;;;;;;;10.11;81.09;101648.85;104356;1105;64278;-61
2021/03/30 03:45:20;;;;;;;26.15;18.58;;;;;;;10.07;81.27;101651.04;104348;1107;80616;-61
2021/03/30 03:47:25;;;;;;;22.90;17.40;;;;;;;10.05;81.30;101650.33;104207;1107;71706;-60
2021/03/30 03:49:31;;;;;;;25.23;17.25;;;;;;;10.06;81.34;101651.17;104301;1107;83933;-61
2021/03/30 03:51:43;;;;;;;26.10;17.70;;;;;;;10.06;81.27;101649.33;104402;1107;79614;-61
2021/03/30 03:53:52;;;;;;;25.40;18.10;;;;;;;10.11;81.28;101661.53;104350;1104;64217;-61
2021/03/30 03:55:59;;;;;;;24.23;18.23;;;;;;;10.15;81.26;101654.83;104378;1104;81202;-60
2021/03/30 03:58:11;;;;;;;26.17;18.00;;;;;;;10.12;81.18;101655.11;104372;1105;71161;-65
2021/03/30 04:00:20;;;;;;;24.33;17.98;;;;;;;10.09;81.26;101653.57;104314;1107;83233;-66
2021/03/30 04:02:29;;;;;;;25.90;18.77;;;;;;;10.06;81.35;101660.13;104367;1107;78166;-66
2021/03/30 04:04:44;;;;;;;24.73;18.75;;;;;;;10.13;81.14;101659.55;104348;1104;64122;-66
2021/03/30 04:06:57;;;;;;;26.58;19.77;;;;;;;10.08;81.42;101663.52;104365;1107;81498;-66
2021/03/30 04:09:12;;;;;;;34.88;21.73;;;;;;;10.14;81.50;101664.78;104387;1107;70737;-66
2021/03/30 04:11:25;;;;;;;26.77;17.85;;;;;;;10.13;81.36;101662.25;104383;1105;83576;-65
2021/03/30 04:13:35;;;;;;;28.30;18.67;;;;;;;10.12;81.20;101669.46;104332;1107;77518;-66
2021/03/30 04:15:44;;;;;;;28.17;19.08;;;;;;;10.15;81.33;101668.33;104303;1106;64227;-66
2021/03/30 04:17:50;;;;;;;25.77;18.42;;;;;;;10.16;81.54;101661.94;104273;1104;81250;-62
2021/03/30 04:19:55;;;;;;;26.30;19.60;;;;;;;10.16;81.53;101667.34;104385;1105;72018;-62
2021/03/30 04:22:01;;;;;;;25.25;19.05;;;;;;;10.12;81.48;101663.21;104366;1104;83780;-67
2021/03/30 04:24:09;;;;;;;25.45;18.48;;;;;;;10.14;81.49;101667.48;104378;1105;78664;-67
2021/03/30 04:26:15;;;;;;;24.00;18.05;;;;;;;10.15;81.40;101673.73;104397;1104;64153;-67
2021/03/30 04:28:21;;;;;;;26.52;18.90;;;;;;;10.14;81.52;101667.48;104392;1105;81429;-67
2021/03/30 04:30:28;;;;;;;24.10;19.38;;;;;;;10.18;81.56;101670.72;104395;1105;72219;-68
2021/03/30 04:32:36;;;;;;;26.10;19.65;;;;;;;10.19;81.42;101667.03;104299;1106;84268;-61
2021/03/30 04:34:41;;;;;;;24.55;18.98;;;;;;;10.19;81.66;101665.16;104338;1105;78741;-61
2021/03/30 04:36:46;;;;;;;21.75;18.02;;;;;;;10.20;81.55;101664.16;104396;1104;64342;-60
2021/03/30 04:38:58;;;;;;;22.30;17.40;;;;;;;10.21;81.38;101663.17;104383;1105;80714;-60
2021/03/30 04:41:06;;;;;;;25.15;18.75;;;;;;;10.19;81.44;101665.16;104381;1105;71089;-60
2021/03/30 04:43:12;;;;;;;26.73;20.83;;;;;;;10.15;81.76;101668.33;104305;1107;84989;-61
2021/03/30 04:45:18;;;;;;;26.50;19.65;;;;;;;10.14;81.70;101669.33;104367;1107;77755;-60
2021/03/30 04:47:24;;;;;;;25.88;19.42;;;;;;;10.15;81.63;101674.59;104386;1104;64220;-67
2021/03/30 04:49:30;;;;;;;26.73;19.25;;;;;;;10.16;81.65;101678.14;104332;1107;81403;-67
2021/03/30 04:51:35;;;;;;;23.37;19.10;;;;;;;10.14;81.59;101678.28;104323;1105;71828;-61
2021/03/30 04:53:40;;;;;;;27.77;20.55;;;;;;;10.15;81.66;101669.19;104358;1104;85660;-60
2021/03/30 04:55:46;;;;;;;26.40;19.90;;;;;;;10.16;81.58;101664.64;104345;1107;78410;-61
2021/03/30 04:57:54;;;;;;;23.63;19.13;;;;;;;10.16;81.74;101661.94;104342;1105;64147;-61
2021/03/30 05:00:04;;;;;;;21.67;18.40;;;;;;;10.19;81.74;101658.94;104419;1104;80980;-61
2021/03/30 05:02:10;;;;;;;22.73;18.80;;;;;;;10.19;81.73;101662.45;104350;1106;72375;-61
2021/03/30 05:04:16;;;;;;;23.58;19.55;;;;;;;10.15;81.92;101663.78;104319;1104;84952;-60
2021/03/30 05:06:27;;;;;;;25.50;19.98;;;;;;;10.13;81.87;101662.25;104246;1108;78014;-60
2021/03/30 05:08:33;;;;;;;25.80;19.95;;;;;;;10.16;81.74;101664.64;104396;1105;64217;-60
2021/03/30 05:10:39;;;;;;;24.38;19.27;;;;;;;10.21;81.84;101673.12;104348;1107;81663;-65
2021/03/30 05:12:44;;;;;;;22.98;18.85;;;;;;;10.30;81.80;101678.42;104333;1106;71885;-62
2021/03/30 05:14:50;;;;;;;25.03;20.30;;;;;;;10.33;81.93;101677.28;104340;1107;84790;-60
2021/03/30 05:16:58;;;;;;;25.17;19.90;;;;;;;10.36;81.95;101674.23;104332;1107;78659;-66
2021/03/30 05:19:04;;;;;;;26.25;19.95;;;;;;;10.33;82.00;101672.70;104373;1105;64614;-66
2021/03/30 05:21:13;;;;;;;28.75;21.70;;;;;;;10.34;81.91;101673.56;104349;1107;79997;-66
2021/03/30 05:23:21;;;;;;;27.00;21.60;;;;;;;10.37;81.88;101671.41;104399;1107;71938;-66
2021/03/30 05:25:27;;;;;;;30.25;21.08;;;;;;;10.46;81.87;101680.42;104337;1107;84440;-65
2021/03/30 05:27:32;;;;;;;28.80;21.58;;;;;;;10.53;81.82;101676.06;104364;1107;79314;-66
2021/03/30 05:29:43;;;;;;;26.08;21.20;;;;;;;10.57;82.00;101674.77;104307;1107;64163;-65
2021/03/30 05:31:48;;;;;;;26.60;20.58;;;;;;;10.60;81.88;101679.85;104315;1107;80819;-66
2021/03/30 05:33:54;;;;;;;28.33;20.90;;;;;;;10.63;81.98;101682.21;104361;1107;73019;-66
2021/03/30 05:35:59;;;;;;;27.83;21.42;;;;;;;10.64;81.91;101675.81;104388;1107;84219;-67
2021/03/30 05:38:05;;;;;;;25.20;21.83;;;;;;;10.63;82.05;101685.77;104320;1107;77320;-66
2021/03/30 05:40:18;;;;;;;30.10;22.20;;;;;;;10.61;82.03;101686.93;104352;1107;64263;-67
2021/03/30 05:42:23;;;;;;;30.33;22.93;;;;;;;10.68;81.92;101682.61;104350;1107;81124;-66
2021/03/30 05:44:30;;;;;;;29.30;22.08;;;;;;;10.71;81.84;101676.89;104329;1105;71340;-66
2021/03/30 05:46:38;;;;;;;29.30;21.27;;;;;;;10.75;81.99;101686.36;104372;1107;83584;-60
2021/03/30 05:48:45;;;;;;;31.97;22.77;;;;;;;10.77;81.85;101683.52;104314;1107;79138;-60
2021/03/30 05:50:51;;;;;;;30.17;23.48;;;;;;;10.75;82.12;101688.20;104348;1107;64310;-60
2021/03/30 05:53:04;;;;;;;29.25;22.80;;;;;;;10.79;81.94;101690.45;104325;1107;82327;-66
2021/03/30 05:55:17;;;;;;;29.30;21.73;;;;;;;10.79;82.06;101690.45;104352;1107;72237;-66
2021/03/30 05:57:27;;;;;;;29.13;21.83;;;;;;;10.81;82.01;101687.58;104302;1107;84120;-67
2021/03/30 05:59:34;;;;;;;29.23;22.52;;;;;;;10.87;82.17;101692.35;104295;1107;79571;-67
2021/03/30 06:01:41;;;;;;;29.63;23.30;;;;;;;10.90;82.11;101687.48;104377;1105;64153;-61
2021/03/30 06:03:48;;;;;;;31.75;24.92;;;;;;;10.89;82.00;101682.22;104315;1105;80317;-61
2021/03/30 06:05:59;;;;;;;33.33;24.60;;;;;;;10.94;81.90;101688.84;104334;1107;71190;-67
2021/03/30 06:08:08;;;;;;;31.00;24.27;;;;;;;10.96;82.09;101681.41;104325;1107;84301;-60
2021/03/30 06:10:20;;;;;;;28.30;24.60;;;;;;;10.99;82.04;101683.80;104248;1107;78637;-61
2021/03/30 06:12:25;;;;;;;33.70;25.60;;;;;;;10.97;81.88;101688.52;104285;1107;64124;-61
2021/03/30 06:14:42;;;;;;;34.85;26.00;;;;;;;10.96;81.98;101692.22;104328;1107;82444;-60
2021/03/30 06:16:49;;;;;;;33.25;25.30;;;;;;;10.98;81.96;101681.27;104359;1107;71720;-60
2021/03/30 06:19:20;;;;;;;34.60;25.98;;;;;;;11.00;82.05;101690.91;104339;1107;84583;-61
2021/03/30 06:21:25;;;;;;;35.28;24.83;;;;;;;11.10;82.09;101690.78;104244;1107;77506;-60
2021/03/30 06:23:35;;;;;;;34.97;25.07;;;;;;;11.17;82.12;101686.44;104327;1107;64530;-59
2021/03/30 06:25:45;;;;;;;29.95;24.25;;;;;;;11.25;82.11;101687.33;104298;1105;80606;-60
2021/03/30 06:27:50;;;;;;;33.63;26.38;;;;;;;11.37;82.16;101689.74;104312;1107;71887;-61
2021/03/30 06:29:59;;;;;;;33.28;25.10;;;;;;;11.45;82.19;101684.36;104332;1106;84981;-60
2021/03/30 06:32:08;;;;;;;30.27;24.08;;;;;;;11.50;82.20;101682.86;104300;1107;77236;-59
2021/03/30 06:34:27;;;;;;;31.13;24.25;;;;;;;11.61;82.04;101690.67;104313;1106;64307;-59
2021/03/30 06:36:33;;;;;;;28.48;23.08;;;;;;;11.68;81.98;101693.55;104309;1107;81860;-60
2021/03/30 06:38:54;;;;;;;33.78;26.05;;;;;;;11.69;82.13;101689.88;104308;1107;72801;-60
2021/03/30 06:41:34;;;;;;;30.33;23.83;;;;;;;11.74;81.94;101695.64;104325;1107;84279;-60
2021/03/30 06:46:11;;;;;;;28.15;22.75;;;;;;;11.89;82.00;101707.53;104324;1107;64329;-57
2021/03/30 06:48:20;;;;;;;30.50;23.80;;;;;;;11.99;82.00;101700.09;104337;1107;81015;-60
2021/03/30 06:50:33;;;;;;;28.60;23.73;;;;;;;12.09;81.81;101706.20;104318;1107;71403;-65
2021/03/30 06:52:42;;;;;;;30.90;23.75;;;;;;;12.16;81.79;101698.27;104254;1107;85078;-60
2021/03/30 06:55:00;;;;;;;31.52;22.73;;;;;;;12.26;81.60;101698.94;104299;1107;77812;-60
2021/03/30 06:57:09;;;;;;;33.70;22.58;;;;;;;12.31;81.47;101705.55;104321;1107;64329;-60
2021/03/30 06:59:15;;;;;;;27.80;23.13;;;;;;;12.31;81.50;101696.56;104309;1107;81127;-60
2021/03/30 07:01:24;;;;;;;29.98;22.58;;;;;;;12.38;81.50;101700.31;104322;1107;72073;-64
2021/03/30 07:03:33;;;;;;;26.25;21.88;;;;;;;12.40;81.12;101707.25;104336;1107;83940;-65
2021/03/30 07:05:41;;;;;;;29.90;20.92;;;;;;;12.42;81.25;101704.36;104325;1106;79424;-64
2021/03/30 07:07:48;;;;;;;25.20;20.90;;;;;;;12.46;81.31;101703.02;104395;1104;64291;-64
2021/03/30 07:09:57;;;;;;;29.20;22.20;;;;;;;12.61;80.91;101708.61;104472;1089;81038;-62
2021/03/30 07:12:03;;;;;;;27.23;22.65;;;;;;;12.57;81.09;101712.66;104476;1105;71417;-59
2021/03/30 07:14:09;;;;;;;30.17;20.80;;;;;;;12.59;80.99;101710.63;104477;1104;84673;-64
2021/03/30 07:16:23;;;;;;;28.30;21.00;;;;;;;12.66;80.75;101712.47;104508;1105;77388;-64
2021/03/30 07:18:36;;;;;;;28.23;22.25;;;;;;;12.57;80.84;101724.36;104516;1104;64387;-65
2021/03/30 07:20:50;;;;;;;30.80;22.25;;;;;;;12.55;80.71;101720.98;104432;1104;82423;-57
2021/03/30 07:23:02;;;;;;;30.38;24.05;;;;;;;12.49;80.81;101723.51;104502;1104;72745;-58
2021/03/30 07:25:17;;;;;;;28.48;22.00;;;;;;;12.50;80.85;101728.75;104386;1104;84228;-64
2021/03/30 07:27:31;;;;;;;32.78;21.98;;;;;;;12.55;80.86;101726.41;104456;1104;78219;-64
2021/03/30 07:29:43;;;;;;;26.35;21.30;;;;;;;12.62;80.86;101732.83;104708;1089;64229;-58
2021/03/30 07:32:00;;;;;;;27.65;22.50;;;;;;;12.69;80.88;101730.30;104448;1104;82357;-59
2021/03/30 07:34:11;;;;;;;26.77;22.50;;;;;;;12.79;80.98;101722.81;104486;1105;72401;-60
2021/03/30 07:36:23;;;;;;;24.73;20.88;;;;;;;12.92;80.91;101728.55;104488;1104;84864;-59
2021/03/30 07:38:46;;;;;;;25.92;21.52;;;;;;;12.95;80.78;101730.92;104457;1105;77835;-60
2021/03/30 07:40:55;;;;;;;26.27;20.90;;;;;;;13.10;80.62;101733.81;104532;1105;64224;-59
2021/03/30 07:43:01;;;;;;;27.92;21.08;;;;;;;13.23;80.44;101734.97;104489;1104;81432;-58
2021/03/30 07:45:14;;;;;;;26.98;21.90;;;;;;;13.32;80.37;101730.37;104487;1105;72960;-62
2021/03/30 07:47:20;;;;;;;26.35;21.42;;;;;;;13.29;80.15;101731.56;104500;1104;83596;-64
2021/03/30 07:49:28;;;;;;;31.60;22.25;;;;;;;13.32;80.24;101733.91;104443;1104;78096;-64
2021/03/30 07:51:43;;;;;;;28.40;22.65;;;;;;;13.33;79.92;101727.47;104502;1104;64311;-63
2021/03/30 07:53:54;;;;;;;25.27;21.33;;;;;;;13.42;79.90;101723.71;104460;1105;80583;-64
2021/03/30 07:56:02;;;;;;;25.73;22.17;;;;;;;13.49;79.86;101730.11;104508;1104;72053;-64
2021/03/30 07:58:13;;;;;;;27.85;22.85;;;;;;;13.53;79.86;101727.91;104479;1104;85121;-64
2021/03/30 08:00:55;;;;;;;28.10;23.33;;;;;;;13.48;79.43;101733.02;104462;1105;78239;-58
2021/03/30 08:03:02;;;;;;;31.65;22.50;;;;;;;13.46;79.49;101735.89;104481;1089;64112;-61
2021/03/30 08:05:12;;;;;;;26.63;21.60;;;;;;;13.51;79.34;101738.92;104285;1107;80541;-58
2021/03/30 08:07:52;;;;;;;29.92;23.23;;;;;;;13.41;79.44;101732.86;104505;1104;71942;-58
2021/03/30 08:10:32;;;;;;;28.02;24.20;;;;;;;13.45;79.41;101746.94;104472;1104;82983;-65
2021/03/30 08:12:41;;;;;;;31.90;25.40;;;;;;;13.60;79.42;101742.45;104480;1104;77365;-64
2021/03/30 08:14:49;;;;;;;29.90;23.42;;;;;;;13.56;79.37;101744.70;104463;1104;64394;-63
2021/03/30 08:16:57;;;;;;;29.05;23.23;;;;;;;13.63;79.28;101741.25;104470;1104;81316;-64
2021/03/30 08:19:08;;;;;;;28.90;22.75;;;;;;;13.79;79.15;101739.31;104485;1105;71692;-65
2021/03/30 08:21:16;;;;;;;28.75;22.92;;;;;;;13.86;79.07;101736.73;104459;1105;84798;-65
2021/03/30 08:23:24;;;;;;;26.83;23.90;;;;;;;13.88;78.94;101742.83;104436;1105;77247;-64
2021/03/30 08:25:29;;;;;;;30.23;23.73;;;;;;;13.93;78.69;101734.98;104447;1105;64461;-64
2021/03/30 08:27:42;;;;;;;27.83;24.05;;;;;;;13.83;78.92;101743.38;104452;1104;82779;-64
2021/03/30 08:29:47;;;;;;;26.38;23.23;;;;;;;13.88;78.84;101751.83;104309;1105;72068;-64
2021/03/30 08:32:13;;;;;;;26.00;22.25;;;;;;;13.98;78.76;101748.91;104446;1104;83798;-65
2021/03/30 08:34:41;;;;;;;27.75;22.10;;;;;;;14.12;78.67;101739.97;104394;1104;78164;-60
2021/03/30 08:36:55;;;;;;;25.23;22.52;;;;;;;14.11;78.63;101736.42;104446;1105;64121;-59
2021/03/30 08:39:09;;;;;;;-1.00;-1.00;;;;;;;14.11;78.47;101739.14;104487;1104;80794;-59
2021/03/30 08:41:54;;;;;;;25.35;22.35;;;;;;;14.13;78.44;101741.67;104380;1105;71253;-59
2021/03/30 08:44:17;;;;;;;28.40;21.63;;;;;;;14.31;78.32;101746.83;104330;1105;84219;-64
2021/03/30 08:46:39;;;;;;;30.75;21.17;;;;;;;14.29;77.86;101749.71;104480;1105;77984;-63
2021/03/30 08:48:52;;;;;;;26.88;22.42;;;;;;;14.20;78.00;101742.66;104491;1104;64159;-59
2021/03/30 08:50:58;;;;;;;25.05;21.30;;;;;;;14.28;78.02;101745.32;104471;1104;81155;-58
2021/03/30 08:53:22;;;;;;;24.17;21.55;;;;;;;14.27;77.95;101749.05;104314;1105;71298;-64
2021/03/30 08:55:34;;;;;;;27.80;21.58;;;;;;;14.38;77.88;101736.94;104452;1104;84192;-63
2021/03/30 08:57:49;;;;;;;26.50;22.27;;;;;;;14.55;78.00;101738.52;104469;1104;77577;-62
2021/03/30 08:59:55;;;;;;;23.13;19.90;;;;;;;14.62;77.75;101736.73;104503;1105;64307;-63
2021/03/30 09:02:07;;;;;;;24.70;19.77;;;;;;;14.66;77.53;101735.36;104495;1104;80514;-63
2021/03/30 09:04:16;;;;;;;26.55;20.80;;;;;;;14.54;77.19;101736.81;104463;1104;72352;-58
2021/03/30 09:06:35;;;;;;;24.42;19.67;;;;;;;14.53;77.14;101746.84;104488;1104;84852;-62
2021/03/30 09:08:43;;;;;;;25.00;20.85;;;;;;;14.46;77.31;101747.75;104471;1104;77284;-59
2021/03/30 09:10:48;;;;;;;26.95;21.30;;;;;;;14.48;77.30;101749.26;104458;1104;64124;-57
2021/03/30 09:13:10;;;;;;;23.17;20.35;;;;;;;14.59;77.23;101748.83;104442;1105;81426;-63
2021/03/30 09:15:18;;;;;;;27.98;22.73;;;;;;;14.65;77.19;101752.70;104468;1105;71060;-62
2021/03/30 09:17:23;;;;;;;26.52;21.38;;;;;;;14.75;77.12;101750.55;104450;1104;83416;-63
2021/03/30 09:19:30;;;;;;;24.30;19.52;;;;;;;14.77;76.81;101751.24;104338;1104;79404;-63
2021/03/30 09:21:36;;;;;;;20.55;17.40;;;;;;;14.87;76.68;101757.27;104457;1104;64211;-63
2021/03/30 09:23:43;;;;;;;21.02;17.45;;;;;;;14.82;76.37;101748.81;104476;1104;81536;-59
2021/03/30 09:25:57;;;;;;;20.27;17.05;;;;;;;14.69;76.08;101749.45;104508;1104;71992;-59
2021/03/30 09:28:03;;;;;;;-1.00;-1.00;;;;;;;14.61;76.12;101746.77;104365;1105;85235;-63
2021/03/30 09:30:15;;;;;;;21.65;18.95;;;;;;;14.64;76.19;101746.41;104484;1104;78640;-64
2021/03/30 09:32:21;;;;;;;22.48;18.35;;;;;;;14.65;76.16;101747.25;104470;1104;64291;-65
2021/03/30 09:34:27;;;;;;;22.77;17.30;;;;;;;14.63;76.18;101749.32;104371;1105;81581;-64
2021/03/30 09:36:49;;;;;;;22.38;17.88;;;;;;;14.60;76.06;101749.69;104467;1104;72770;-63
2021/03/30 09:38:58;;;;;;;23.85;19.42;;;;;;;14.64;76.43;101757.28;104480;1104;84923;-64
2021/03/30 09:41:05;;;;;;;20.38;18.20;;;;;;;15.00;76.72;101752.03;104288;1105;77419;-64
2021/03/30 09:43:12;;;;;;;20.80;18.20;;;;;;;15.25;76.46;101756.19;104265;1107;64156;-59
2021/03/30 09:45:25;;;;;;;22.60;17.98;;;;;;;15.32;76.30;101761.75;104471;1104;81656;-57
2021/03/30 09:47:34;;;;;;;18.50;15.75;;;;;;;15.18;75.74;101757.13;104496;1104;72494;-58